Airfield :
LOGIN :

Register | Disclaimer

   EN    FR    IT 

 










Legend :    VFR   Marginal VFR   IFR   Intensive IFR   Very Intensive IFR
Visi :
Ceiling :
>= 8 km
>= 3000ft
5 to 8 km
1000 to 3000 ft
1500m to 5 km
500 to 1000 ft
800 to 1500m
200 to 500 ft
< 800m
< 200 ft
Symbols :   Thunderstorms  Fog  Heavy snow  Heavy precipitations  Wind > 20 kt
SIGMETs :     Misc.  Thunderstorms  Icing  Turbulence  Mountain Waves  Volcanic Ashes






- Airport Elevation : 160 ft
- IATA code : LRT


LFRH - Lorient Lann Bihoue

CURRENT METAR :
  • 241300Z AUTO 27011KT 250V320 9999 FEW026 10/06 Q1000 TEMPO 27015G25KT 3000 SHRAGS BKN012CB

EXPIRED METARs :
  • 241230Z AUTO 28009KT 250V310 9999 FEW024/// SCT034/// BKN045/// ///TCU 08/06 Q1000 TEMPO 27015G25KT 3000 SHRAGS BKN012CB
  • 241200Z AUTO 30013KT 270V330 9999 -RA BKN025/// BKN034/// BKN050/// ///CB 08/05 Q1000 TEMPO 27015G25KT 3000 SHRAGS BKN012CB
  • 241130Z AUTO 27011KT 9999 FEW016/// BKN041/// BKN064/// ///CB 09/06 Q1000 TEMPO 27015G25KT 3000 SHRAGS BKN012CB
  • 241100Z AUTO 26013KT 9999 FEW035/// BKN048/// BKN058/// ///CB 08/05 Q1000 TEMPO 27015G25KT 3000 SHRAGS BKN012CB
  • 241030Z AUTO 27008KT 9999 FEW026/// SCT032/// ///TCU 08/06 Q0999 TEMPO 27015G25KT 3000 SHRAGS BKN012CB
  • 241000Z AUTO 28009KT 250V310 9999 -RA FEW022/// SCT034/// BKN052/// ///CB 07/05 Q0999 TEMPO 27015G25KT 3000 SHRAGS BKN012CB
  • 240930Z AUTO 25007KT 220V280 9999 FEW016/// BKN029/// BKN039/// ///CB 07/05 Q0999 TEMPO 27015G25KT 3000 SHRAGS BKN012CB
  • 240900Z AUTO 27010KT 230V290 9999 -RA SCT025/// BKN030/// BKN035/// ///CB 07/05 Q0999 TEMPO 27015G25KT 3000 SHRAGS BKN012CB
  • 240830Z AUTO 27005KT 240V300 9999 FEW037/// BKN220/// ///CB 07/04 Q0999 TEMPO 27015G25KT 3000 SHRAGS BKN012CB

TAF TAF LFRH
Valid from the 24 at 12:00 until the 25 at 12:00 UTC


241100Z 2412/2512 28005KT 9999 SCT040
TEMPO 2412/2418 27015G25KT 3000 SHRA BKN020CB
PROB30
TEMPO 2412/2416 3000 SHRAGS BKN012CB
TEMPO 2423/2512 4000 RA BKN005 OVC008
PROB40
TEMPO 2508/2512 3000 SHRA BKN015TCU



MET'MAP, your aeronautical weather chart ! - Copyright ORBIFLY December 2007 - Disclaimer

ORBIFLY MET'MAP TEAM :

Programming & Development : Alexandra Zaïnal
Original concept : Baudouin d'Aumeries
Technical & hardware support : Manuel Goepfert
Assistance : Marc-Olivier Méhu




SOURCES & CREDITS :

   NOAA